Time;durP1;ratioP1;P1;durP2;ratioP2;P2;SDS_P1;SDS_P2;PMS_P1;PMS_P2;Temp;Humidity;BMP_temperature;BMP_pressure;BME280_temperature;BME280_humidity;BME280_pressure;Samples;Min_cycle;Max_cycle;Signal;HPM_P1;HPM_P2
2022/10/27 07:29:56;;;;;;;9.85;3.10;;;;;;;18.52;64.07;97368.34;2084600;28;20596;-66
2022/10/27 07:30:58;;;;;;;8.50;3.25;;;;;;;18.78;63.43;97382.50;2079905;28;20236;-66
2022/10/27 07:32:03;;;;;;;11.07;3.30;;;;;;;18.00;66.40;97381.31;2077219;28;20641;-68
2022/10/27 07:33:05;;;;;;;15.93;3.70;;;;;;;18.34;64.30;97381.81;2080340;28;20725;-68
2022/10/27 07:34:06;;;;;;;10.25;4.75;;;;;;;18.86;63.38;97380.19;2079402;28;20768;-68
2022/10/27 07:35:08;;;;;;;11.23;3.95;;;;;;;19.16;62.33;97387.06;2079983;28;20240;-68
2022/10/27 07:36:09;;;;;;;16.05;4.13;;;;;;;19.50;61.41;97397.13;2077339;28;20755;-68
2022/10/27 07:37:11;;;;;;;9.85;3.72;;;;;;;19.65;60.79;97387.28;2077350;28;20723;-68
2022/10/27 07:38:12;;;;;;;11.80;3.67;;;;;;;19.85;60.32;97386.75;2075919;28;20232;-68
2022/10/27 07:39:17;;;;;;;9.15;3.20;;;;;;;20.03;59.22;97381.09;2079812;28;20225;-68
2022/10/27 07:40:21;;;;;;;14.40;3.65;;;;;;;20.52;58.10;97389.97;2077770;28;20854;-68
2022/10/27 07:41:23;;;;;;;15.20;4.15;;;;;;;20.77;57.28;97383.69;2077942;28;20568;-68
2022/10/27 07:42:24;;;;;;;10.48;3.38;;;;;;;19.57;60.81;97391.31;2078082;28;20266;-68
2022/10/27 07:43:26;;;;;;;12.70;3.85;;;;;;;19.92;60.20;97395.09;2079662;28;20262;-68
2022/10/27 07:44:27;;;;;;;11.65;3.80;;;;;;;20.32;59.50;97402.03;2083284;28;20283;-68
2022/10/27 07:45:28;;;;;;;10.82;2.83;;;;;;;21.07;57.51;97400.97;2080954;28;20244;-68
2022/10/27 07:46:30;;;;;;;10.63;3.40;;;;;;;21.50;56.46;97402.16;2076173;28;20260;-68
2022/10/27 07:47:31;;;;;;;17.02;4.05;;;;;;;21.66;55.71;97397.38;2076364;28;20293;-68
2022/10/27 07:48:32;;;;;;;20.48;4.07;;;;;;;22.11;54.28;97396.50;2077240;28;20202;-68
2022/10/27 07:49:37;;;;;;;18.80;4.05;;;;;;;22.19;54.54;97411.84;2080821;28;20291;-68
2022/10/27 07:50:40;;;;;;;13.02;3.70;;;;;;;22.17;54.13;97406.66;2081826;28;20243;-68
2022/10/27 07:51:41;;;;;;;17.75;4.07;;;;;;;21.97;54.70;97408.22;2079445;28;20906;-68
2022/10/27 07:52:48;;;;;;;10.02;3.60;;;;;;;22.22;54.04;97414.28;2081599;28;20264;-66
2022/10/27 07:53:50;;;;;;;11.95;4.53;;;;;;;22.15;54.26;97418.38;2079236;28;20224;-66
2022/10/27 07:54:58;;;;;;;21.48;5.18;;;;;;;22.53;53.33;97411.81;2077433;28;20677;-67
2022/10/27 07:55:59;;;;;;;15.52;4.20;;;;;;;22.52;52.95;97417.28;2078088;28;20284;-66
2022/10/27 07:57:01;;;;;;;7.20;3.53;;;;;;;22.36;53.65;97410.50;2081632;28;20287;-66
2022/10/27 07:58:06;;;;;;;18.30;4.32;;;;;;;22.42;53.01;97417.16;2081885;28;20658;-66
2022/10/27 07:59:11;;;;;;;16.77;4.53;;;;;;;22.59;53.05;97413.13;2081882;28;20658;-66
2022/10/27 08:00:16;;;;;;;7.45;2.95;;;;;;;22.53;52.63;97403.84;2083496;28;20634;-66
2022/10/27 08:01:17;;;;;;;16.50;5.35;;;;;;;22.89;52.27;97404.41;2082801;28;20232;-66
2022/10/27 08:02:19;;;;;;;14.63;4.68;;;;;;;22.42;52.64;97412.69;2081898;28;20287;-66
2022/10/27 08:03:24;;;;;;;8.85;3.70;;;;;;;22.61;52.79;97412.06;2077456;28;20208;-66
2022/10/27 08:04:25;;;;;;;8.98;4.25;;;;;;;23.09;51.99;97407.25;2078923;28;20192;-66
2022/10/27 08:05:28;;;;;;;10.70;3.85;;;;;;;23.45;51.36;97419.31;2075354;28;20312;-66
2022/10/27 08:06:30;;;;;;;12.45;3.65;;;;;;;23.64;50.60;97417.72;2081646;28;20196;-66
2022/10/27 08:07:31;;;;;;;7.57;3.70;;;;;;;23.25;51.18;97418.34;2080554;28;20263;-65
2022/10/27 08:15:06;;;;;;;14.63;3.90;;;;;;;24.60;48.22;97409.41;2076941;28;20485;-66
2022/10/27 08:16:07;;;;;;;8.63;3.10;;;;;;;24.34;48.30;97412.59;2077307;28;20517;-66
2022/10/27 08:17:09;;;;;;;8.80;3.27;;;;;;;24.44;48.53;97412.59;2069280;28;20502;-66
2022/10/27 08:18:10;;;;;;;7.97;3.30;;;;;;;24.36;48.75;97413.28;2077539;28;20495;-66
2022/10/27 08:19:12;;;;;;;10.53;3.03;;;;;;;24.60;48.30;97422.75;2076443;28;20431;-66
2022/10/27 08:27:00;;;;;;;12.43;3.40;;;;;;;24.94;47.25;97427.75;2082877;28;20395;-66
2022/10/27 08:28:02;;;;;;;7.00;2.73;;;;;;;24.59;48.09;97427.25;2083682;28;20454;-66
2022/10/27 08:29:03;;;;;;;10.37;2.70;;;;;;;25.13;47.23;97421.56;2078604;28;20507;-66
2022/10/27 08:30:07;;;;;;;9.97;3.17;;;;;;;25.04;47.37;97423.25;2077887;28;20497;-67
2022/10/27 08:31:08;;;;;;;16.33;2.60;;;;;;;24.52;47.86;97428.78;2076797;28;20548;-67
2022/10/27 08:32:15;;;;;;;17.30;2.63;;;;;;;24.66;48.08;97429.38;2076976;28;20462;-66
2022/10/27 08:33:16;;;;;;;8.83;2.77;;;;;;;24.37;48.74;97422.16;2080326;28;20422;-66
2022/10/27 08:34:18;;;;;;;10.10;3.33;;;;;;;24.77;47.71;97435.47;2080942;28;20948;-66
2022/10/27 08:35:19;;;;;;;11.33;3.50;;;;;;;25.13;46.98;97423.38;2080955;28;20450;-66
2022/10/27 08:36:20;;;;;;;10.48;2.97;;;;;;;24.84;47.56;97427.72;2081512;28;20454;-66
2022/10/27 08:37:22;;;;;;;15.60;2.30;;;;;;;24.57;47.88;97423.88;2080664;28;20279;-65
2022/10/27 08:38:23;;;;;;;16.95;3.80;;;;;;;24.44;48.33;97421.47;2078756;28;20232;-66
2022/10/27 08:39:25;;;;;;;9.07;3.22;;;;;;;24.41;47.82;97412.88;2075872;28;20299;-66
2022/10/27 08:40:33;;;;;;;14.32;3.40;;;;;;;25.04;47.19;97425.06;2074519;28;20249;-66
2022/10/27 08:41:37;;;;;;;11.32;3.08;;;;;;;25.13;47.25;97424.22;2071145;28;20292;-66
2022/10/27 08:43:00;;;;;;;6.82;2.92;;;;;;;24.99;47.65;97421.97;2074214;28;20289;-66
2022/10/27 08:44:28;;;;;;;8.00;2.83;;;;;;;24.89;47.40;97425.47;2075005;28;20309;-66
2022/10/27 08:45:44;;;;;;;10.43;2.28;;;;;;;24.99;47.38;97421.97;2071765;28;20321;-66
2022/10/27 08:46:55;;;;;;;8.15;2.50;;;;;;;24.84;47.71;97425.06;2074821;28;20233;-66
2022/10/27 08:48:00;;;;;;;11.80;2.85;;;;;;;24.83;47.42;97425.22;2076417;28;20732;-66
2022/10/27 08:49:05;;;;;;;9.45;2.63;;;;;;;25.19;47.06;97426.34;2074736;28;20265;-65
2022/10/27 08:50:15;;;;;;;9.68;2.58;;;;;;;25.25;46.59;97403.53;2076150;28;20225;-66
2022/10/27 08:51:21;;;;;;;6.97;2.38;;;;;;;25.09;46.96;97429.00;2075015;28;20208;-66
2022/10/27 08:52:34;;;;;;;10.18;2.95;;;;;;;25.63;46.22;97428.53;2077000;28;20292;-66
2022/10/27 08:53:37;;;;;;;6.05;2.47;;;;;;;25.48;46.12;97420.13;2072591;28;20256;-66
2022/10/27 08:54:42;;;;;;;13.95;2.38;;;;;;;25.64;45.48;97429.41;2069663;28;20300;-66
2022/10/27 08:55:43;;;;;;;14.40;2.45;;;;;;;25.33;45.96;97430.41;2071542;28;20722;-65
2022/10/27 08:56:45;;;;;;;16.15;3.15;;;;;;;25.21;46.41;97428.84;2069676;28;20285;-65
2022/10/27 08:57:54;;;;;;;14.27;2.72;;;;;;;25.29;46.42;97428.97;2074579;28;20899;-65
2022/10/27 08:58:55;;;;;;;9.98;3.25;;;;;;;25.66;45.73;97416.72;2075226;28;20224;-65
2022/10/27 08:59:58;;;;;;;11.32;2.75;;;;;;;25.58;45.68;97429.00;2077022;28;20683;-65
2022/10/27 09:01:18;;;;;;;5.78;2.45;;;;;;;25.78;45.21;97423.56;2077117;28;20201;-65
2022/10/27 09:02:53;;;;;;;9.40;2.70;;;;;;;26.35;44.91;97420.81;2072136;28;20688;-66
2022/10/27 09:04:13;;;;;;;12.02;2.88;;;;;;;26.81;43.06;97422.69;2075477;28;20615;-66
2022/10/27 09:05:48;;;;;;;12.00;2.85;;;;;;;27.03;42.48;97424.06;2073725;28;20226;-66
2022/10/27 09:07:12;;;;;;;14.93;2.70;;;;;;;27.19;42.24;97420.69;2075929;28;20204;-66
2022/10/27 09:08:39;;;;;;;11.02;2.90;;;;;;;27.15;42.37;97412.13;2077509;28;20196;-66
2022/10/27 09:09:53;;;;;;;11.10;2.53;;;;;;;27.51;41.36;97424.66;2074903;28;20225;-66
2022/10/27 09:10:59;;;;;;;6.85;2.30;;;;;;;26.35;43.35;97428.03;2073681;28;20208;-65
2022/10/27 09:12:20;;;;;;;17.83;2.90;;;;;;;27.33;42.41;97420.13;2074572;28;20204;-66
2022/10/27 09:13:55;;;;;;;10.63;2.58;;;;;;;27.83;41.39;97420.50;2074381;28;20273;-65
2022/10/27 09:15:13;;;;;;;6.17;2.60;;;;;;;28.56;40.11;97429.91;2075465;28;20648;-66
2022/10/27 09:16:28;;;;;;;8.00;2.40;;;;;;;28.35;40.42;97433.88;2077004;28;20761;-66
2022/10/27 09:17:36;;;;;;;5.45;2.45;;;;;;;27.79;40.66;97428.00;2073823;28;20513;-66
2022/10/27 09:18:46;;;;;;;4.57;2.00;;;;;;;29.13;39.35;97431.06;2076332;28;20237;-66
2022/10/27 09:20:00;;;;;;;8.47;2.60;;;;;;;28.17;40.36;97431.25;2074401;28;20515;-66
2022/10/27 09:21:08;;;;;;;10.40;2.27;;;;;;;27.20;42.59;97431.25;2077295;28;20466;-66
2022/10/27 09:22:17;;;;;;;8.03;2.63;;;;;;;26.94;42.47;97425.81;2077050;28;20514;-65
2022/10/27 09:23:24;;;;;;;6.00;2.53;;;;;;;26.65;42.89;97420.66;2075434;28;20435;-66
2022/10/27 09:24:29;;;;;;;9.25;1.95;;;;;;;27.66;41.34;97424.94;2074636;28;20237;-66
2022/10/27 09:25:31;;;;;;;9.27;2.37;;;;;;;28.76;39.63;97405.44;2072491;28;20685;-66
2022/10/27 09:26:33;;;;;;;8.53;2.50;;;;;;;29.28;38.68;97407.91;2077395;28;20458;-66
2022/10/27 09:27:42;;;;;;;10.93;2.60;;;;;;;29.69;38.54;97428.53;2075974;28;20462;-66
2022/10/27 09:28:48;;;;;;;10.27;2.93;;;;;;;29.41;38.03;97423.50;2071521;28;20432;-65
2022/10/27 09:29:51;;;;;;;5.30;2.23;;;;;;;29.16;38.49;97428.84;2073920;28;20529;-66
2022/10/27 09:30:54;;;;;;;6.20;2.30;;;;;;;28.37;40.11;97422.09;2073802;28;20427;-66
2022/10/27 09:32:19;;;;;;;8.80;1.90;;;;;;;28.67;40.21;97421.56;2069738;28;20880;-66
2022/10/27 09:33:27;;;;;;;5.73;2.40;;;;;;;28.65;39.47;97422.72;2075155;28;20518;-66
2022/10/27 09:34:55;;;;;;;15.67;2.57;;;;;;;28.81;39.52;97414.72;2074285;28;20513;-66
2022/10/27 09:35:57;;;;;;;11.13;2.27;;;;;;;27.97;40.38;97411.00;2072580;28;20578;-67
2022/10/27 09:36:58;;;;;;;6.77;2.27;;;;;;;28.97;39.23;97421.13;2072790;28;20439;-65
2022/10/27 09:38:00;;;;;;;16.65;2.88;;;;;;;28.15;39.86;97417.19;2072653;28;20922;-66
2022/10/27 09:44:14;;;;;;;4.85;1.98;;;;;;;28.12;39.98;97422.84;2075710;28;20767;-65
2022/10/27 09:45:19;;;;;;;12.85;2.00;;;;;;;28.39;39.97;97422.78;2071906;28;20272;-65
2022/10/27 09:46:23;;;;;;;7.65;2.50;;;;;;;27.80;40.64;97413.59;2073723;28;20197;-65
2022/10/27 09:47:29;;;;;;;13.48;2.92;;;;;;;26.53;43.41;97417.34;2073839;28;20221;-65
2022/10/27 09:48:33;;;;;;;5.45;2.03;;;;;;;27.53;41.54;97428.03;2074625;28;20822;-66
2022/10/27 09:49:38;;;;;;;9.32;3.03;;;;;;;27.91;39.99;97417.88;2072412;28;20197;-65
2022/10/27 09:50:47;;;;;;;9.65;2.80;;;;;;;27.35;42.08;97417.28;2075221;28;20205;-66
2022/10/27 09:51:53;;;;;;;7.53;2.20;;;;;;;28.71;39.70;97414.03;2072113;28;20229;-66
2022/10/27 09:52:54;;;;;;;10.30;2.00;;;;;;;29.24;38.52;97427.19;2074433;28;20243;-66
2022/10/27 09:53:56;;;;;;;8.95;2.80;;;;;;;28.81;38.62;97425.47;2074506;28;20197;-65
2022/10/27 09:54:57;;;;;;;8.48;2.33;;;;;;;26.71;41.68;97418.19;2075782;28;20623;-66
2022/10/27 09:55:59;;;;;;;12.63;2.63;;;;;;;27.09;40.97;97390.47;2076493;28;20231;-65
2022/10/27 10:08:23;;;;;;;11.95;2.40;;;;;;;29.94;36.67;97415.03;2070972;28;20170;-69
2022/10/27 10:09:29;;;;;;;10.52;1.92;;;;;;;29.56;37.37;97403.97;2076218;28;20248;-69
2022/10/27 10:10:31;;;;;;;11.75;2.85;;;;;;;30.20;36.22;97408.56;2063749;28;20976;-69
2022/10/27 10:11:32;;;;;;;8.57;1.92;;;;;;;30.77;35.49;97412.84;2064053;28;20199;-69
2022/10/27 10:12:33;;;;;;;10.07;2.13;;;;;;;30.80;34.78;97407.06;2077058;28;20257;-69
2022/10/27 10:13:40;;;;;;;14.55;2.35;;;;;;;30.44;35.36;97392.28;2073828;28;20240;-68
2022/10/27 10:14:41;;;;;;;10.35;2.35;;;;;;;31.03;34.43;97409.81;2075294;28;20199;-68
2022/10/27 10:15:45;;;;;;;11.77;2.75;;;;;;;29.92;36.78;97384.78;2072366;28;20942;-69
2022/10/27 10:16:47;;;;;;;5.73;1.97;;;;;;;31.06;35.17;97414.03;2073194;28;20297;-69
2022/10/27 10:17:52;;;;;;;7.10;1.63;;;;;;;30.91;34.19;97403.97;2075901;28;20453;-68
2022/10/27 10:18:59;;;;;;;10.20;2.72;;;;;;;30.94;34.76;97398.25;2072742;28;20427;-69
2022/10/27 10:20:05;;;;;;;7.95;1.85;;;;;;;27.67;38.76;97405.97;2075410;28;20308;-69
2022/10/27 10:21:10;;;;;;;9.20;1.70;;;;;;;29.22;36.72;97400.47;2071902;28;20288;-69
2022/10/27 10:22:20;;;;;;;7.97;2.27;;;;;;;27.23;39.78;97405.16;2072962;28;20474;-69
2022/10/27 10:23:25;;;;;;;7.70;2.03;;;;;;;27.14;40.40;97393.50;2072397;28;20436;-69
2022/10/27 10:24:30;;;;;;;10.15;2.53;;;;;;;29.21;37.43;97401.47;2071715;28;20423;-68
2022/10/27 10:25:38;;;;;;;12.35;2.25;;;;;;;31.10;34.59;97409.94;2072029;28;20225;-68
2022/10/27 10:32:03;;;;;;;9.18;2.28;;;;;;;30.68;35.44;97403.09;2072194;28;20237;-68
2022/10/27 10:33:06;;;;;;;8.75;2.30;;;;;;;32.47;32.61;97403.50;2070621;28;20272;-68
2022/10/27 10:34:29;;;;;;;11.40;2.40;;;;;;;31.66;33.45;97401.53;2072649;28;20206;-66
2022/10/27 10:35:49;;;;;;;13.23;3.43;;;;;;;30.77;35.11;97394.81;2076212;28;20446;-68
2022/10/27 10:36:54;;;;;;;9.38;2.25;;;;;;;30.35;35.56;97395.19;2077566;28;20912;-67
2022/10/27 10:37:56;;;;;;;16.33;6.07;;;;;;;31.55;33.81;97401.97;2072861;28;20716;-68
2022/10/27 10:39:01;;;;;;;2.90;1.77;;;;;;;32.04;33.48;97392.53;2069800;28;20415;-69
2022/10/27 10:40:12;;;;;;;6.70;1.77;;;;;;;30.20;35.31;97395.94;2072517;28;20561;-69
2022/10/27 10:41:24;;;;;;;13.33;2.47;;;;;;;29.46;36.90;97388.88;2074281;28;20961;-69
2022/10/27 10:42:25;;;;;;;8.23;1.67;;;;;;;31.26;34.35;97396.31;2074312;28;20510;-69
2022/10/27 10:43:27;;;;;;;7.53;2.00;;;;;;;31.61;33.94;97397.69;2076817;28;20282;-69
2022/10/27 10:44:28;;;;;;;5.20;2.07;;;;;;;31.62;34.59;97394.81;2076246;28;20925;-69
2022/10/27 10:45:33;;;;;;;6.73;2.50;;;;;;;31.49;33.90;97400.84;2069996;28;20868;-68
2022/10/27 10:46:39;;;;;;;16.30;2.17;;;;;;;31.46;34.27;97392.28;2070873;28;20518;-68
2022/10/27 10:47:46;;;;;;;11.40;2.53;;;;;;;31.02;34.21;97397.34;2072349;28;20469;-69
2022/10/27 10:48:52;;;;;;;7.87;1.73;;;;;;;30.66;34.90;97392.50;2075188;28;20461;-68
2022/10/27 10:49:57;;;;;;;7.50;1.83;;;;;;;31.19;34.54;97405.31;2073394;28;20502;-69
2022/10/27 10:56:06;;;;;;;6.15;1.92;;;;;;;29.63;36.67;97378.91;2071808;28;20760;-69
2022/10/27 10:57:27;;;;;;;9.30;2.15;;;;;;;29.90;36.57;97382.25;2072312;28;20193;-69
2022/10/27 10:58:35;;;;;;;9.73;2.65;;;;;;;29.98;36.13;97367.94;2074550;28;20204;-69
2022/10/27 10:59:43;;;;;;;8.95;2.20;;;;;;;30.15;36.54;97376.75;2071805;28;20284;-70
2022/10/27 11:00:57;;;;;;;12.18;2.22;;;;;;;30.91;35.80;97370.81;2073654;28;20289;-70
2022/10/27 11:02:19;;;;;;;5.63;1.95;;;;;;;30.05;36.96;97382.34;2077319;28;20571;-69
2022/10/27 11:03:22;;;;;;;8.85;2.33;;;;;;;29.17;38.67;97381.31;2073224;28;20228;-70
2022/10/27 11:04:40;;;;;;;8.63;2.05;;;;;;;28.31;40.05;97378.78;2073935;28;20290;-69
2022/10/27 11:05:41;;;;;;;13.80;2.10;;;;;;;26.73;42.60;97372.56;2067169;28;20257;-68
2022/10/27 11:07:03;;;;;;;17.98;6.55;;;;;;;28.94;39.22;97363.16;2065758;28;20661;-68
2022/10/27 11:08:05;;;;;;;12.02;2.58;;;;;;;29.13;38.81;97380.81;2075764;28;20751;-67
2022/10/27 11:09:10;;;;;;;9.15;2.80;;;;;;;27.39;41.33;97375.81;2073714;28;20300;-68
2022/10/27 11:10:13;;;;;;;14.20;2.65;;;;;;;28.30;40.65;97374.44;2073528;28;20304;-68
2022/10/27 11:11:21;;;;;;;12.05;1.95;;;;;;;29.05;38.52;97361.16;2074427;28;20329;-68
2022/10/27 11:12:38;;;;;;;8.95;2.38;;;;;;;29.10;38.54;97369.53;2075533;28;20266;-69
2022/10/27 11:13:55;;;;;;;10.65;2.35;;;;;;;28.62;39.57;97358.56;2070312;28;20309;-68
2022/10/27 11:15:03;;;;;;;7.15;2.10;;;;;;;27.57;41.73;97358.84;2074411;28;20285;-69
2022/10/27 11:16:08;;;;;;;8.13;2.38;;;;;;;27.27;42.15;97361.78;2071916;28;20305;-68
2022/10/27 11:17:09;;;;;;;6.15;2.20;;;;;;;26.43;42.97;97329.06;2070835;28;20251;-68
2022/10/27 11:18:42;;;;;;;7.75;2.17;;;;;;;27.34;41.72;97360.16;2070765;28;20635;-69
2022/10/27 11:31:31;;;;;;;8.30;2.33;;;;;;;27.25;41.68;97363.78;2076523;28;20221;-68
2022/10/27 11:32:47;;;;;;;8.02;2.33;;;;;;;26.77;42.14;97359.72;2065625;28;20292;-68
2022/10/27 11:34:01;;;;;;;5.40;2.17;;;;;;;26.63;42.32;97358.38;2067892;28;20289;-68
2022/10/27 11:35:08;;;;;;;8.77;2.85;;;;;;;27.69;40.77;97349.50;2071392;28;20252;-68
2022/10/27 11:36:17;;;;;;;6.00;1.75;;;;;;;26.17;43.22;97337.81;2075648;28;20199;-69
2022/10/27 11:37:42;;;;;;;5.13;2.00;;;;;;;26.36;43.34;97352.91;2074204;28;20246;-69
2022/10/27 11:39:07;;;;;;;12.05;2.50;;;;;;;26.93;41.86;97349.13;2073707;28;20208;-69
2022/10/27 11:40:58;;;;;;;9.75;3.35;;;;;;;27.84;40.41;97355.94;2069906;28;20323;-69
2022/10/27 11:54:03;;;;;;;8.00;1.70;;;;;;;26.87;41.81;97347.91;2073319;28;20177;-68
2022/10/27 11:55:06;;;;;;;6.38;1.92;;;;;;;27.56;40.64;97339.19;2071087;28;20220;-69
2022/10/27 11:56:26;;;;;;;15.02;2.20;;;;;;;27.77;40.12;97332.59;2073366;28;20537;-69
2022/10/27 11:57:33;;;;;;;7.18;1.80;;;;;;;28.34;39.87;97331.97;2068539;28;20201;-68
2022/10/27 11:58:59;;;;;;;18.35;2.50;;;;;;;26.20;42.92;97334.84;2067020;28;20202;-68
2022/10/27 12:00:12;;;;;;;5.97;2.22;;;;;;;26.67;42.28;97330.28;2066713;28;20221;-69
2022/10/27 12:01:30;;;;;;;8.48;1.80;;;;;;;26.55;42.21;97330.53;2070010;28;20592;-67
2022/10/27 12:02:53;;;;;;;4.63;1.60;;;;;;;26.38;42.20;97326.81;2076429;28;20194;-68
2022/10/27 12:04:12;;;;;;;6.00;2.13;;;;;;;25.52;44.02;97319.09;2074984;28;20245;-69
2022/10/27 12:05:20;;;;;;;5.55;1.90;;;;;;;26.40;41.96;97310.63;2072296;28;20249;-70
2022/10/27 12:06:54;;;;;;;5.90;2.00;;;;;;;26.78;41.63;97321.19;2073066;28;20293;-67
2022/10/27 12:08:27;;;;;;;13.60;2.38;;;;;;;26.57;41.93;97311.63;2071700;28;20244;-67
2022/10/27 12:09:44;;;;;;;13.27;2.58;;;;;;;27.01;42.31;97313.53;2070872;28;20194;-68
2022/10/27 12:11:04;;;;;;;7.10;1.73;;;;;;;26.69;40.80;97310.41;2074971;28;20244;-67
2022/10/27 12:24:05;;;;;;;10.00;1.90;;;;;;;26.59;42.17;97311.47;2074268;28;20175;-67
2022/10/27 12:25:11;;;;;;;10.98;1.77;;;;;;;27.06;42.01;97308.53;2069941;28;20279;-68
2022/10/27 12:26:19;;;;;;;9.98;2.15;;;;;;;26.98;41.86;97313.81;2071664;28;20289;-69
2022/10/27 12:27:25;;;;;;;12.57;1.90;;;;;;;27.85;40.38;97314.69;2074269;28;20280;-69
2022/10/27 12:28:27;;;;;;;14.43;1.80;;;;;;;28.04;39.13;97307.41;2074143;28;20252;-68
2022/10/27 12:29:35;;;;;;;10.50;2.22;;;;;;;25.51;42.77;97307.56;2071430;28;20881;-69
2022/10/27 12:30:43;;;;;;;5.07;1.60;;;;;;;25.92;42.59;97316.09;2072633;28;20209;-69
2022/10/27 12:31:54;;;;;;;5.60;2.42;;;;;;;24.86;43.45;97297.59;2072358;28;20289;-69
2022/10/27 12:33:15;;;;;;;11.70;2.55;;;;;;;25.49;43.70;97298.84;2074822;28;20261;-69
2022/10/27 12:34:26;;;;;;;6.40;1.75;;;;;;;25.90;42.77;97306.53;2075425;28;20539;-67
2022/10/27 12:35:33;;;;;;;13.02;1.98;;;;;;;26.61;41.40;97309.47;2076829;28;20735;-67
2022/10/27 12:36:53;;;;;;;8.32;2.72;;;;;;;26.79;40.78;97310.34;2070599;28;20209;-67
2022/10/27 12:38:26;;;;;;;5.70;2.10;;;;;;;26.46;41.20;97310.03;2076086;28;20229;-67
2022/10/27 12:39:50;;;;;;;4.50;1.88;;;;;;;27.07;40.45;97312.06;2074134;28;20297;-67
2022/10/27 12:41:12;;;;;;;7.28;2.47;;;;;;;27.74;39.99;97314.97;2072962;28;20890;-66
2022/10/27 12:42:30;;;;;;;9.70;2.00;;;;;;;27.78;40.00;97316.34;2074654;28;20292;-67
2022/10/27 12:43:45;;;;;;;9.43;2.13;;;;;;;27.64;39.79;97306.22;2076578;28;20390;-67
2022/10/27 12:44:58;;;;;;;8.60;2.38;;;;;;;26.58;41.44;97301.75;2078188;28;20207;-67
2022/10/27 12:46:13;;;;;;;9.52;2.15;;;;;;;26.84;41.47;97302.69;2067249;28;20365;-67
2022/10/27 12:47:33;;;;;;;7.22;1.80;;;;;;;27.28;40.86;97306.34;2068368;28;20352;-67
2022/10/27 12:48:44;;;;;;;12.02;2.80;;;;;;;26.82;41.85;97302.00;2070116;28;20228;-67
2022/10/27 12:50:12;;;;;;;11.93;1.90;;;;;;;27.15;41.75;97296.88;2073374;28;20379;-68
2022/10/27 12:51:45;;;;;;;7.20;1.90;;;;;;;27.65;40.42;97298.00;2076487;28;20700;-69
2022/10/27 12:52:55;;;;;;;6.90;1.80;;;;;;;27.26;41.69;97305.66;2068175;28;20814;-69
2022/10/27 12:54:35;;;;;;;7.80;1.88;;;;;;;25.70;43.63;97306.66;2073716;28;20450;-68
2022/10/27 12:55:49;;;;;;;8.30;1.58;;;;;;;26.13;43.46;97293.63;2071401;28;20241;-69
2022/10/27 12:57:06;;;;;;;5.00;1.70;;;;;;;26.38;42.70;97305.41;2074720;28;20605;-68
2022/10/27 12:58:47;;;;;;;8.65;1.98;;;;;;;26.57;42.65;97295.56;2070774;28;20295;-69
2022/10/27 13:00:00;;;;;;;10.05;2.20;;;;;;;26.36;42.63;97290.50;2070637;28;20230;-68
2022/10/27 13:01:21;;;;;;;7.30;2.00;;;;;;;26.67;41.96;97287.44;2075285;28;20200;-69
2022/10/27 13:02:27;;;;;;;7.30;1.65;;;;;;;27.02;41.19;97275.84;2075797;28;20204;-69
2022/10/27 13:03:49;;;;;;;8.25;2.53;;;;;;;25.53;44.28;97286.03;2075818;28;20637;-69
2022/10/27 13:05:12;;;;;;;7.57;1.83;;;;;;;25.56;44.90;97289.25;2073614;28;20224;-69
2022/10/27 13:13:39;;;;;;;7.45;2.17;;;;;;;27.68;42.17;97278.91;2073920;28;20276;-66
2022/10/27 13:15:02;;;;;;;4.13;1.60;;;;;;;25.97;44.52;97285.41;2067456;28;20206;-67
2022/10/27 13:16:43;;;;;;;8.23;1.95;;;;;;;26.46;43.29;97274.38;2067806;28;20285;-67
2022/10/27 13:31:19;;;;;;;5.03;1.77;;;;;;;26.31;44.49;97261.53;2071519;28;20217;-66
2022/10/27 13:32:26;;;;;;;8.45;2.35;;;;;;;27.12;43.27;97270.41;2073088;28;20193;-66
2022/10/27 13:33:41;;;;;;;9.68;2.47;;;;;;;27.63;42.39;97266.97;2074260;28;20237;-66
2022/10/27 13:35:02;;;;;;;5.40;1.90;;;;;;;27.58;41.76;97272.84;2066824;28;20280;-67
2022/10/27 13:36:26;;;;;;;9.90;2.10;;;;;;;26.72;44.07;97271.75;2067458;28;20248;-66
2022/10/27 13:37:52;;;;;;;7.63;2.33;;;;;;;27.01;42.92;97266.13;2068837;28;20722;-66
2022/10/27 13:39:12;;;;;;;7.35;2.17;;;;;;;26.07;44.76;97268.31;2066279;28;20309;-66
2022/10/27 13:40:20;;;;;;;8.45;2.65;;;;;;;25.52;45.61;97260.28;2069213;28;20703;-66
2022/10/27 13:41:45;;;;;;;11.35;1.92;;;;;;;26.91;43.47;97268.06;2076398;28;20252;-66
2022/10/27 13:42:51;;;;;;;6.78;1.85;;;;;;;26.47;44.41;97265.34;2072019;28;20189;-66
2022/10/27 13:43:55;;;;;;;6.68;1.95;;;;;;;27.50;42.82;97259.38;2084941;28;20291;-66
2022/10/27 13:44:56;;;;;;;4.97;2.28;;;;;;;27.00;43.37;97268.97;2085395;28;20315;-66
2022/10/27 13:45:58;;;;;;;8.43;2.00;;;;;;;27.19;42.38;97268.75;2076890;28;20250;-66
2022/10/27 13:47:02;;;;;;;5.85;2.10;;;;;;;27.52;41.64;97266.28;2073674;28;20660;-68
2022/10/27 13:55:01;;;;;;;10.55;1.90;;;;;;;27.16;41.96;97266.41;2070807;28;20171;-68
2022/10/27 13:56:08;;;;;;;9.25;1.85;;;;;;;27.54;41.63;97268.78;2070627;28;20199;-68
2022/10/27 13:57:48;;;;;;;15.05;2.50;;;;;;;27.10;42.61;97274.25;2071866;28;20232;-68
2022/10/27 13:58:59;;;;;;;3.53;1.52;;;;;;;26.70;43.14;97265.69;2074236;28;20202;-68
2022/10/27 14:00:09;;;;;;;21.58;3.40;;;;;;;26.37;43.26;97252.88;2070352;28;20312;-68
2022/10/27 14:01:26;;;;;;;9.68;2.67;;;;;;;26.68;43.07;97262.34;2070606;28;20233;-68
2022/10/27 14:02:40;;;;;;;9.15;2.95;;;;;;;26.37;43.41;97241.31;2069242;28;20251;-68
2022/10/27 14:04:21;;;;;;;14.23;1.90;;;;;;;27.13;42.51;97269.38;2071165;28;20689;-68
2022/10/27 14:05:39;;;;;;;8.57;2.17;;;;;;;26.96;42.47;97247.00;2074044;28;20703;-68
2022/10/27 14:06:44;;;;;;;11.52;2.55;;;;;;;26.91;43.17;97261.88;2072580;28;20631;-68
2022/10/27 14:07:49;;;;;;;11.82;2.97;;;;;;;26.53;43.89;97262.06;2074269;28;20307;-68
2022/10/27 14:08:52;;;;;;;6.28;1.60;;;;;;;25.82;44.95;97243.09;2077760;28;20288;-68
2022/10/27 14:09:53;;;;;;;9.07;2.17;;;;;;;25.53;45.33;97249.44;2069780;28;20241;-68
2022/10/27 14:11:10;;;;;;;8.30;1.80;;;;;;;26.02;44.50;97254.50;2076276;28;20285;-68
2022/10/27 14:19:29;;;;;;;9.23;2.28;;;;;;;26.45;43.36;97251.25;2071583;28;20189;-68
2022/10/27 14:20:36;;;;;;;5.60;2.17;;;;;;;26.50;43.63;97259.66;2071317;28;20704;-68
2022/10/27 14:21:50;;;;;;;8.07;2.00;;;;;;;25.97;45.05;97242.59;2073564;28;20202;-68
2022/10/27 14:22:59;;;;;;;9.07;1.83;;;;;;;26.53;44.86;97236.09;2074551;28;20197;-68
2022/10/27 14:24:17;;;;;;;14.18;1.95;;;;;;;27.05;42.56;97234.50;2069016;28;20202;-68
2022/10/27 14:25:30;;;;;;;6.28;2.10;;;;;;;25.88;45.89;97250.53;2069170;28;20225;-68
2022/10/27 14:26:34;;;;;;;8.48;2.03;;;;;;;24.80;47.53;97252.75;2074559;28;20225;-68
2022/10/27 14:27:36;;;;;;;5.93;2.20;;;;;;;24.84;47.69;97253.31;2075824;28;20687;-68
2022/10/27 14:28:46;;;;;;;7.80;2.30;;;;;;;25.36;47.80;97240.38;2076728;28;20761;-68
2022/10/27 14:29:47;;;;;;;11.00;2.05;;;;;;;25.40;47.90;97252.44;2072895;28;20293;-67
2022/10/27 14:31:18;;;;;;;13.57;2.75;;;;;;;24.78;47.98;97236.03;2068361;28;20205;-68
2022/10/27 14:32:24;;;;;;;7.80;2.00;;;;;;;24.84;47.89;97251.47;2071836;28;20292;-68
2022/10/27 14:33:26;;;;;;;8.75;2.17;;;;;;;24.89;47.99;97251.88;2072755;28;20228;-68
2022/10/27 14:34:27;;;;;;;4.65;1.60;;;;;;;24.87;47.42;97218.28;2071601;28;20239;-68
2022/10/27 14:35:32;;;;;;;10.60;2.28;;;;;;;25.47;46.92;97243.84;2071899;28;20806;-68
2022/10/27 14:42:03;;;;;;;9.65;2.22;;;;;;;25.07;48.67;97254.66;2073306;28;20200;-68
2022/10/27 14:43:15;;;;;;;6.40;1.70;;;;;;;24.93;48.24;97245.25;2063667;28;20285;-68
2022/10/27 14:44:24;;;;;;;3.80;1.67;;;;;;;24.62;48.67;97245.44;2066336;28;20206;-68
2022/10/27 14:45:26;;;;;;;8.68;2.05;;;;;;;24.50;48.77;97243.91;2072409;28;20221;-68
2022/10/27 14:46:43;;;;;;;12.90;2.75;;;;;;;24.79;49.15;97248.41;2071125;28;20317;-68
2022/10/27 14:48:00;;;;;;;8.70;2.05;;;;;;;24.21;50.34;97249.25;2070301;28;20229;-68
2022/10/27 14:49:06;;;;;;;15.18;2.50;;;;;;;24.19;50.42;97241.38;2072142;28;20197;-68
2022/10/27 14:50:25;;;;;;;10.38;2.20;;;;;;;23.61;50.76;97245.59;2072396;28;20304;-68
2022/10/27 14:51:30;;;;;;;9.63;2.45;;;;;;;23.89;51.04;97256.47;2076472;28;20678;-68
2022/10/27 14:52:42;;;;;;;9.77;2.25;;;;;;;23.67;51.39;97249.53;2077128;28;20327;-68